EZY89C LOWI-EGKK
Flight info
| Callsign | EZY89C |
|---|---|
| Flight time | 1h 37m |
| Altitude | 38000 |
| Route | MOGTI1X MOGTI P66 KPT L608 KUNOD DCT LIRSU DCT ARCKY DCT BUB L608 DENUT L610 TEBRA TEBRA2G |
| Aircraft | A320/M-VGDW/C |
Departure
| Time | 2026-05-04 08:48 |
|---|---|
| Airport | Innsbruck Airport (LOWI) |
Arrival
| Time | 2026-05-04 10:25 |
|---|---|
| Airport | London Gatwick Airport (EGKK) |
| Time | Latitude | Longitude | Altitude | Speed | Heading |
|---|---|---|---|---|---|
| 2026-05-04 08:21 | 47.25827 | 11.35110 | 1900 ft | 0 kts | 171° |
| 2026-05-04 08:38 | 47.25831 | 11.35110 | 1904 ft | 3 kts | 171° |
| 2026-05-04 08:38 | 47.25857 | 11.35104 | 1892 ft | 4 kts | 171° |
| 2026-05-04 08:40 | 47.25878 | 11.35046 | 1904 ft | 0 kts | 81° |
| 2026-05-04 08:41 | 47.25883 | 11.35094 | 1895 ft | 8 kts | 81° |
| 2026-05-04 08:42 | 47.25891 | 11.35171 | 1897 ft | 7 kts | 81° |
| 2026-05-04 08:42 | 47.25899 | 11.35244 | 1901 ft | 9 kts | 81° |
| 2026-05-04 08:42 | 47.25935 | 11.35287 | 1904 ft | 6 kts | 355° |
| 2026-05-04 08:42 | 47.25974 | 11.35278 | 1904 ft | 5 kts | 351° |
| 2026-05-04 08:43 | 47.25980 | 11.35277 | 1904 ft | 0 kts | 351° |
| 2026-05-04 08:46 | 47.26087 | 11.35257 | 1904 ft | 9 kts | 5° |
| 2026-05-04 08:46 | 47.26118 | 11.35320 | 1900 ft | 9 kts | 79° |
| 2026-05-04 08:46 | 47.26130 | 11.35429 | 1901 ft | 13 kts | 82° |
| 2026-05-04 08:46 | 47.26138 | 11.35560 | 1893 ft | 12 kts | 103° |
| 2026-05-04 08:47 | 47.26110 | 11.35661 | 1897 ft | 10 kts | 86° |
| 2026-05-04 08:47 | 47.26142 | 11.35723 | 1904 ft | 7 kts | 357° |
| 2026-05-04 08:47 | 47.26158 | 11.35677 | 1899 ft | 5 kts | 262° |
| 2026-05-04 08:47 | 47.26150 | 11.35598 | 1896 ft | 18 kts | 261° |
| 2026-05-04 08:48 | 47.26083 | 11.34979 | 1899 ft | 103 kts | 261° |
| 2026-05-04 08:48 | 47.25935 | 11.33618 | 2113 ft | 151 kts | 259° |
| 2026-05-04 08:48 | 47.25776 | 11.32073 | 3022 ft | 154 kts | 259° |
| 2026-05-04 08:48 | 47.25606 | 11.30442 | 3753 ft | 168 kts | 260° |
| 2026-05-04 08:49 | 47.25419 | 11.28643 | 4050 ft | 189 kts | 261° |
| 2026-05-04 08:50 | 47.28850 | 11.14486 | 7405 ft | 282 kts | 291° |
| 2026-05-04 08:50 | 47.29632 | 11.11808 | 8325 ft | 285 kts | 291° |
| 2026-05-04 08:51 | 47.30295 | 11.09051 | 9230 ft | 287 kts | 280° |
| 2026-05-04 08:51 | 47.30485 | 11.07080 | 9849 ft | 288 kts | 270° |
| 2026-05-04 08:51 | 47.30424 | 11.04099 | 10441 ft | 301 kts | 264° |
| 2026-05-04 08:51 | 47.30298 | 11.00910 | 10796 ft | 319 kts | 264° |
| 2026-05-04 08:52 | 47.30164 | 10.97605 | 11473 ft | 327 kts | 264° |
| 2026-05-04 08:52 | 47.30027 | 10.94240 | 12270 ft | 330 kts | 264° |
| 2026-05-04 08:52 | 47.29890 | 10.90841 | 13082 ft | 334 kts | 265° |
| 2026-05-04 08:52 | 47.30019 | 10.87409 | 13821 ft | 340 kts | 278° |
| 2026-05-04 08:53 | 47.30734 | 10.84059 | 14476 ft | 347 kts | 292° |
| 2026-05-04 08:54 | 47.43862 | 10.66634 | 18992 ft | 379 kts | 323° |
| 2026-05-04 08:55 | 47.46012 | 10.64448 | 19556 ft | 382 kts | 323° |
| 2026-05-04 08:55 | 47.48239 | 10.62183 | 20143 ft | 385 kts | 323° |
| 2026-05-04 08:55 | 47.50421 | 10.59959 | 20725 ft | 388 kts | 323° |
| 2026-05-04 08:55 | 47.52647 | 10.57683 | 21306 ft | 390 kts | 323° |
| 2026-05-04 08:57 | 47.68614 | 10.41185 | 24713 ft | 409 kts | 322° |
| 2026-05-04 09:01 | 48.00675 | 10.03096 | 30205 ft | 436 kts | 316° |
| 2026-05-04 09:01 | 48.03024 | 10.00203 | 30497 ft | 438 kts | 316° |
| 2026-05-04 09:01 | 48.05380 | 9.97298 | 30795 ft | 440 kts | 316° |
| 2026-05-04 09:01 | 48.07708 | 9.94417 | 31086 ft | 441 kts | 316° |
| 2026-05-04 09:02 | 48.10077 | 9.91485 | 31368 ft | 443 kts | 316° |
| 2026-05-04 09:02 | 48.12454 | 9.88544 | 31684 ft | 443 kts | 316° |
| 2026-05-04 09:02 | 48.14831 | 9.85603 | 32099 ft | 442 kts | 315° |
| 2026-05-04 09:02 | 48.17200 | 9.82670 | 32456 ft | 442 kts | 315° |
| 2026-05-04 09:03 | 48.19563 | 9.79738 | 32824 ft | 441 kts | 315° |
| 2026-05-04 09:03 | 48.21925 | 9.76800 | 33210 ft | 440 kts | 315° |
| 2026-05-04 09:03 | 48.24276 | 9.73867 | 33614 ft | 439 kts | 315° |
| 2026-05-04 09:03 | 48.26619 | 9.70941 | 34041 ft | 437 kts | 315° |
| 2026-05-04 09:04 | 48.28951 | 9.68026 | 34391 ft | 435 kts | 315° |
| 2026-05-04 09:04 | 48.31276 | 9.65115 | 34694 ft | 435 kts | 315° |
| 2026-05-04 09:04 | 48.33587 | 9.62187 | 34989 ft | 433 kts | 312° |
| 2026-05-04 09:04 | 48.35677 | 9.58974 | 35249 ft | 430 kts | 308° |
| 2026-05-04 09:05 | 48.37715 | 9.55677 | 35516 ft | 430 kts | 308° |
| 2026-05-04 09:05 | 48.39746 | 9.52387 | 35777 ft | 430 kts | 308° |
| 2026-05-04 09:05 | 48.41780 | 9.49090 | 36035 ft | 430 kts | 308° |
| 2026-05-04 09:05 | 48.43818 | 9.45786 | 36261 ft | 430 kts | 308° |
| 2026-05-04 09:06 | 48.45857 | 9.42484 | 36487 ft | 431 kts | 308° |
| 2026-05-04 09:07 | 48.60058 | 9.19302 | 37963 ft | 431 kts | 308° |
| 2026-05-04 09:08 | 48.62089 | 9.15968 | 38030 ft | 431 kts | 308° |
| 2026-05-04 09:08 | 48.66140 | 9.09312 | 38029 ft | 430 kts | 308° |
| 2026-05-04 09:09 | 48.70194 | 9.02642 | 38027 ft | 430 kts | 308° |
| 2026-05-04 09:09 | 48.74249 | 8.95964 | 38035 ft | 430 kts | 308° |
| 2026-05-04 09:10 | 48.78277 | 8.89281 | 38028 ft | 430 kts | 308° |
| 2026-05-04 09:10 | 48.82303 | 8.82587 | 38029 ft | 430 kts | 308° |
| 2026-05-04 09:11 | 48.86337 | 8.75872 | 38051 ft | 430 kts | 307° |
| 2026-05-04 09:11 | 48.90364 | 8.69151 | 38042 ft | 430 kts | 307° |
| 2026-05-04 09:12 | 48.94391 | 8.62412 | 38030 ft | 430 kts | 307° |
| 2026-05-04 09:14 | 49.10433 | 8.35397 | 38036 ft | 430 kts | 307° |
| 2026-05-04 09:14 | 49.14437 | 8.28608 | 38032 ft | 430 kts | 307° |
| 2026-05-04 09:15 | 49.18163 | 8.22269 | 38032 ft | 430 kts | 307° |
| 2026-05-04 09:15 | 49.20681 | 8.17977 | 38030 ft | 430 kts | 307° |
| 2026-05-04 09:17 | 49.38184 | 7.87962 | 38036 ft | 430 kts | 307° |
| 2026-05-04 09:18 | 49.41932 | 7.81496 | 38035 ft | 430 kts | 307° |
| 2026-05-04 09:18 | 49.45898 | 7.74628 | 38029 ft | 430 kts | 307° |
| 2026-05-04 09:19 | 49.49857 | 7.67749 | 38036 ft | 430 kts | 307° |
| 2026-05-04 09:19 | 49.53823 | 7.60862 | 38047 ft | 430 kts | 307° |
| 2026-05-04 09:20 | 49.57783 | 7.53967 | 38038 ft | 430 kts | 307° |
| 2026-05-04 09:20 | 49.61734 | 7.47056 | 38032 ft | 430 kts | 307° |
| 2026-05-04 09:21 | 49.65207 | 7.40975 | 38024 ft | 430 kts | 307° |
| 2026-05-04 09:21 | 49.69146 | 7.34036 | 38022 ft | 430 kts | 306° |
| 2026-05-04 09:22 | 49.73082 | 7.27093 | 38025 ft | 430 kts | 307° |
| 2026-05-04 09:22 | 49.77025 | 7.20128 | 38041 ft | 430 kts | 306° |
| 2026-05-04 09:23 | 49.80956 | 7.13144 | 38028 ft | 431 kts | 306° |
| 2026-05-04 09:23 | 49.84896 | 7.06138 | 38025 ft | 431 kts | 306° |
| 2026-05-04 09:25 | 49.99917 | 6.79287 | 38058 ft | 432 kts | 306° |
| 2026-05-04 09:26 | 50.03815 | 6.72264 | 38047 ft | 432 kts | 306° |
| 2026-05-04 09:26 | 50.07736 | 6.65180 | 38025 ft | 432 kts | 306° |
| 2026-05-04 09:27 | 50.11657 | 6.58089 | 38022 ft | 432 kts | 306° |
| 2026-05-04 09:27 | 50.15570 | 6.50976 | 38012 ft | 432 kts | 306° |
| 2026-05-04 09:28 | 50.19283 | 6.43657 | 38018 ft | 426 kts | 296° |
| 2026-05-04 09:28 | 50.22126 | 6.35593 | 38022 ft | 424 kts | 294° |
| 2026-05-04 09:29 | 50.24948 | 6.27472 | 38014 ft | 425 kts | 294° |
| 2026-05-04 09:29 | 50.27783 | 6.19350 | 38011 ft | 426 kts | 293° |
| 2026-05-04 09:30 | 50.30630 | 6.11223 | 38010 ft | 427 kts | 294° |
| 2026-05-04 09:30 | 50.33692 | 6.03228 | 38009 ft | 429 kts | 296° |
| 2026-05-04 09:31 | 50.36863 | 5.95311 | 38027 ft | 429 kts | 296° |
| 2026-05-04 09:31 | 50.39996 | 5.87346 | 38018 ft | 429 kts | 296° |
| 2026-05-04 09:32 | 50.43080 | 5.79332 | 38016 ft | 429 kts | 296° |
| 2026-05-04 09:34 | 50.55342 | 5.47242 | 38005 ft | 430 kts | 296° |
| 2026-05-04 09:34 | 50.58415 | 5.39159 | 37995 ft | 431 kts | 295° |
| 2026-05-04 09:35 | 50.61482 | 5.31041 | 38000 ft | 431 kts | 295° |
| 2026-05-04 09:35 | 50.64542 | 5.22907 | 38025 ft | 432 kts | 295° |
| 2026-05-04 09:37 | 50.76790 | 4.90225 | 37988 ft | 435 kts | 296° |
| 2026-05-04 09:38 | 50.79858 | 4.81976 | 38012 ft | 435 kts | 295° |
| 2026-05-04 09:38 | 50.82920 | 4.73709 | 38009 ft | 435 kts | 295° |
| 2026-05-04 09:39 | 50.85968 | 4.65430 | 38044 ft | 435 kts | 296° |
| 2026-05-04 09:39 | 50.89012 | 4.57136 | 38042 ft | 436 kts | 296° |
| 2026-05-04 09:40 | 50.91560 | 4.50252 | 38039 ft | 436 kts | 296° |
| 2026-05-04 09:40 | 50.94723 | 4.42026 | 38038 ft | 437 kts | 297° |
| 2026-05-04 09:42 | 51.07362 | 4.09023 | 38018 ft | 437 kts | 297° |
| 2026-05-04 09:43 | 51.10498 | 4.00736 | 38010 ft | 437 kts | 296° |
| 2026-05-04 09:43 | 51.13626 | 3.92448 | 38008 ft | 437 kts | 296° |
| 2026-05-04 09:44 | 51.16731 | 3.84195 | 38008 ft | 437 kts | 296° |
| 2026-05-04 09:46 | 51.25754 | 3.49665 | 38001 ft | 428 kts | 278° |
| 2026-05-04 09:46 | 51.26368 | 3.45003 | 37439 ft | 433 kts | 278° |
| 2026-05-04 09:46 | 51.26993 | 3.40234 | 36305 ft | 443 kts | 277° |
| 2026-05-04 09:47 | 51.27624 | 3.35418 | 35654 ft | 441 kts | 277° |
| 2026-05-04 09:47 | 51.28247 | 3.30648 | 35110 ft | 437 kts | 276° |
| 2026-05-04 09:49 | 51.32313 | 2.98731 | 31377 ft | 403 kts | 275° |
| 2026-05-04 09:49 | 51.32799 | 2.94863 | 30954 ft | 398 kts | 275° |
| 2026-05-04 09:49 | 51.33337 | 2.90555 | 30486 ft | 393 kts | 275° |
| 2026-05-04 09:51 | 51.36370 | 2.65958 | 27977 ft | 357 kts | 275° |
| 2026-05-04 09:51 | 51.36848 | 2.62093 | 27591 ft | 352 kts | 275° |
| 2026-05-04 09:51 | 51.37321 | 2.58280 | 27209 ft | 347 kts | 276° |
| 2026-05-04 09:51 | 51.37780 | 2.54572 | 26828 ft | 342 kts | 276° |
| 2026-05-04 09:52 | 51.38238 | 2.50857 | 26438 ft | 338 kts | 276° |
| 2026-05-04 09:52 | 51.38686 | 2.47191 | 26064 ft | 334 kts | 276° |
| 2026-05-04 09:52 | 51.39125 | 2.43558 | 25665 ft | 331 kts | 276° |
| 2026-05-04 09:52 | 51.39560 | 2.39954 | 25274 ft | 328 kts | 276° |
| 2026-05-04 09:53 | 51.39988 | 2.36387 | 24892 ft | 326 kts | 276° |
| 2026-05-04 09:53 | 51.40414 | 2.32835 | 24481 ft | 324 kts | 276° |
| 2026-05-04 09:53 | 51.40834 | 2.29311 | 24086 ft | 321 kts | 277° |
| 2026-05-04 09:53 | 51.41252 | 2.25804 | 23676 ft | 319 kts | 277° |
| 2026-05-04 09:54 | 51.41672 | 2.22315 | 23242 ft | 318 kts | 277° |
| 2026-05-04 09:54 | 51.42093 | 2.18862 | 22840 ft | 314 kts | 277° |
| 2026-05-04 09:54 | 51.42513 | 2.15445 | 22467 ft | 311 kts | 277° |
| 2026-05-04 09:54 | 51.42928 | 2.12059 | 22086 ft | 308 kts | 277° |
| 2026-05-04 09:55 | 51.43338 | 2.08705 | 21712 ft | 306 kts | 277° |
| 2026-05-04 09:55 | 51.43743 | 2.05375 | 21363 ft | 303 kts | 278° |
| 2026-05-04 09:55 | 51.44145 | 2.02067 | 21001 ft | 302 kts | 278° |
| 2026-05-04 09:55 | 51.44546 | 1.98762 | 20634 ft | 301 kts | 278° |
| 2026-05-04 09:56 | 51.44937 | 1.95469 | 20284 ft | 300 kts | 278° |
| 2026-05-04 09:56 | 51.45320 | 1.92179 | 19927 ft | 299 kts | 278° |
| 2026-05-04 09:56 | 51.45701 | 1.88903 | 19578 ft | 299 kts | 278° |
| 2026-05-04 09:56 | 51.46080 | 1.85668 | 19230 ft | 299 kts | 278° |
| 2026-05-04 09:57 | 51.46468 | 1.82354 | 18871 ft | 298 kts | 278° |
| 2026-05-04 09:57 | 51.46846 | 1.79084 | 18524 ft | 298 kts | 278° |
| 2026-05-04 09:57 | 51.47223 | 1.75810 | 18147 ft | 299 kts | 278° |
| 2026-05-04 09:57 | 51.47593 | 1.72582 | 17785 ft | 298 kts | 278° |
| 2026-05-04 09:58 | 51.47965 | 1.69327 | 17439 ft | 296 kts | 278° |
| 2026-05-04 09:58 | 51.48337 | 1.66080 | 17093 ft | 295 kts | 278° |
| 2026-05-04 09:58 | 51.48583 | 1.62833 | 16757 ft | 292 kts | 269° |
| 2026-05-04 10:00 | 51.44367 | 1.41541 | 14467 ft | 286 kts | 249° |
| 2026-05-04 10:00 | 51.43509 | 1.38680 | 14139 ft | 285 kts | 237° |
| 2026-05-04 10:02 | 51.32605 | 1.24694 | 12580 ft | 292 kts | 217° |
| 2026-05-04 10:04 | 51.21299 | 1.11370 | 10809 ft | 285 kts | 217° |
| 2026-05-04 10:04 | 51.19705 | 1.09495 | 10565 ft | 284 kts | 217° |
| 2026-05-04 10:04 | 51.18114 | 1.07625 | 10318 ft | 284 kts | 217° |
| 2026-05-04 10:04 | 51.16529 | 1.05763 | 10083 ft | 283 kts | 217° |
| 2026-05-04 10:05 | 51.14950 | 1.03908 | 9901 ft | 281 kts | 217° |
| 2026-05-04 10:05 | 51.13376 | 1.02067 | 9770 ft | 281 kts | 217° |
| 2026-05-04 10:05 | 51.11803 | 1.00234 | 9636 ft | 280 kts | 217° |
| 2026-05-04 10:05 | 51.10230 | 0.98402 | 9503 ft | 280 kts | 217° |
| 2026-05-04 10:06 | 51.08840 | 0.96783 | 9388 ft | 280 kts | 217° |
| 2026-05-04 10:06 | 51.07273 | 0.94947 | 9252 ft | 280 kts | 219° |
| 2026-05-04 10:06 | 51.05893 | 0.92800 | 9116 ft | 278 kts | 231° |
| 2026-05-04 10:08 | 51.00745 | 0.76460 | 8330 ft | 275 kts | 244° |
| 2026-05-04 10:08 | 50.99923 | 0.73728 | 8197 ft | 274 kts | 244° |
| 2026-05-04 10:08 | 50.99105 | 0.71000 | 8074 ft | 274 kts | 244° |
| 2026-05-04 10:08 | 50.98289 | 0.68276 | 7941 ft | 273 kts | 244° |
| 2026-05-04 10:09 | 50.97470 | 0.65542 | 7818 ft | 275 kts | 244° |
| 2026-05-04 10:09 | 50.96651 | 0.62820 | 7690 ft | 273 kts | 244° |
| 2026-05-04 10:09 | 50.95832 | 0.60104 | 7561 ft | 272 kts | 243° |
| 2026-05-04 10:09 | 50.95013 | 0.57403 | 7437 ft | 272 kts | 243° |
| 2026-05-04 10:10 | 50.94289 | 0.55019 | 7327 ft | 273 kts | 244° |
| 2026-05-04 10:10 | 50.93481 | 0.52353 | 7202 ft | 272 kts | 243° |
| 2026-05-04 10:10 | 50.92661 | 0.49647 | 7077 ft | 273 kts | 244° |
| 2026-05-04 10:10 | 50.91922 | 0.46887 | 6966 ft | 272 kts | 253° |
| 2026-05-04 10:11 | 50.91629 | 0.43933 | 6831 ft | 273 kts | 268° |
| 2026-05-04 10:11 | 50.91839 | 0.40959 | 6712 ft | 274 kts | 283° |
| 2026-05-04 10:11 | 50.92309 | 0.38427 | 6603 ft | 274 kts | 285° |
| 2026-05-04 10:11 | 50.92847 | 0.35530 | 6476 ft | 274 kts | 285° |
| 2026-05-04 10:12 | 50.93377 | 0.32636 | 6356 ft | 273 kts | 285° |
| 2026-05-04 10:12 | 50.93906 | 0.29741 | 6214 ft | 273 kts | 285° |
| 2026-05-04 10:12 | 50.94495 | 0.26884 | 6089 ft | 273 kts | 294° |
| 2026-05-04 10:12 | 50.95459 | 0.24321 | 5966 ft | 273 kts | 307° |
| 2026-05-04 10:13 | 50.96635 | 0.21947 | 5777 ft | 271 kts | 307° |
| 2026-05-04 10:13 | 50.97787 | 0.19609 | 5402 ft | 267 kts | 308° |
| 2026-05-04 10:13 | 50.98926 | 0.17290 | 5003 ft | 266 kts | 308° |
| 2026-05-04 10:13 | 51.00062 | 0.14980 | 4577 ft | 265 kts | 308° |
| 2026-05-04 10:14 | 51.01108 | 0.12588 | 4152 ft | 264 kts | 297° |
| 2026-05-04 10:14 | 51.01726 | 0.09871 | 3850 ft | 260 kts | 281° |
| 2026-05-04 10:16 | 51.02666 | -0.10520 | 3450 ft | 266 kts | 274° |
| 2026-05-04 10:16 | 51.02791 | -0.13443 | 3387 ft | 265 kts | 274° |
| 2026-05-04 10:16 | 51.02916 | -0.16371 | 3329 ft | 265 kts | 274° |
| 2026-05-04 10:16 | 51.03039 | -0.19291 | 3268 ft | 265 kts | 274° |
| 2026-05-04 10:17 | 51.03161 | -0.22216 | 3209 ft | 265 kts | 274° |
| 2026-05-04 10:17 | 51.03281 | -0.25145 | 3097 ft | 265 kts | 274° |
| 2026-05-04 10:19 | 51.04094 | -0.45441 | 2999 ft | 259 kts | 274° |
| 2026-05-04 10:19 | 51.04206 | -0.48307 | 2997 ft | 260 kts | 273° |
| 2026-05-04 10:19 | 51.04325 | -0.51166 | 3000 ft | 259 kts | 277° |
| 2026-05-04 10:19 | 51.04951 | -0.53793 | 2998 ft | 258 kts | 311° |
| 2026-05-04 10:20 | 51.06405 | -0.55306 | 3001 ft | 246 kts | 348° |
| 2026-05-04 10:20 | 51.08039 | -0.55389 | 3002 ft | 228 kts | 9° |
| 2026-05-04 10:20 | 51.09405 | -0.54345 | 2996 ft | 217 kts | 46° |
| 2026-05-04 10:20 | 51.09989 | -0.53064 | 2993 ft | 215 kts | 69° |
| 2026-05-04 10:21 | 51.10361 | -0.50767 | 3009 ft | 216 kts | 77° |
| 2026-05-04 10:21 | 51.10699 | -0.48454 | 2997 ft | 216 kts | 77° |
| 2026-05-04 10:21 | 51.11033 | -0.46121 | 3005 ft | 214 kts | 77° |
| 2026-05-04 10:21 | 51.11349 | -0.43883 | 3007 ft | 200 kts | 77° |
| 2026-05-04 10:22 | 51.11925 | -0.39779 | 2642 ft | 183 kts | 77° |
| 2026-05-04 10:22 | 51.12196 | -0.37845 | 2434 ft | 174 kts | 77° |
| 2026-05-04 10:22 | 51.12456 | -0.35989 | 2188 ft | 171 kts | 77° |
| 2026-05-04 10:23 | 51.12714 | -0.34144 | 1941 ft | 170 kts | 77° |
| 2026-05-04 10:23 | 51.12969 | -0.32313 | 1725 ft | 170 kts | 77° |
| 2026-05-04 10:25 | 51.14449 | -0.21708 | 347 ft | 126 kts | 75° |
| 2026-05-04 10:25 | 51.14629 | -0.20362 | 236 ft | 123 kts | 73° |
| 2026-05-04 10:25 | 51.14798 | -0.19168 | 214 ft | 89 kts | 78° |
| 2026-05-04 10:25 | 51.14908 | -0.18541 | 218 ft | 31 kts | 51° |
| 2026-05-04 10:26 | 51.15010 | -0.18382 | 217 ft | 18 kts | 52° |
| 2026-05-04 10:26 | 51.15077 | -0.18250 | 208 ft | 15 kts | 51° |
| 2026-05-04 10:26 | 51.15127 | -0.18111 | 208 ft | 7 kts | 77° |
| 2026-05-04 10:26 | 51.15139 | -0.18012 | 205 ft | 10 kts | 78° |
| 2026-05-04 10:27 | 51.15155 | -0.17892 | 209 ft | 12 kts | 77° |
| 2026-05-04 10:27 | 51.15175 | -0.17752 | 210 ft | 14 kts | 77° |
| 2026-05-04 10:27 | 51.15198 | -0.17585 | 207 ft | 16 kts | 77° |
| 2026-05-04 10:27 | 51.15218 | -0.17442 | 213 ft | 0 kts | 77° |
| 2026-05-04 10:28 | 51.15219 | -0.17436 | 205 ft | 3 kts | 77° |
| 2026-05-04 10:28 | 51.15225 | -0.17395 | 208 ft | 9 kts | 77° |
| 2026-05-04 10:28 | 51.15296 | -0.17353 | 211 ft | 10 kts | 346° |
| 2026-05-04 10:28 | 51.15342 | -0.17370 | 205 ft | 10 kts | 347° |
| 2026-05-04 10:29 | 51.15412 | -0.17395 | 205 ft | 10 kts | 347° |
| 2026-05-04 10:29 | 51.15483 | -0.17420 | 211 ft | 11 kts | 347° |
| 2026-05-04 10:29 | 51.15563 | -0.17448 | 214 ft | 13 kts | 348° |
| 2026-05-04 10:29 | 51.15658 | -0.17479 | 210 ft | 15 kts | 348° |
| 2026-05-04 10:30 | 51.15729 | -0.17506 | 205 ft | 8 kts | 342° |
| 2026-05-04 10:30 | 51.15754 | -0.17567 | 214 ft | 6 kts | 273° |
| 2026-05-04 10:30 | 51.15745 | -0.17634 | 205 ft | 6 kts | 256° |
| 2026-05-04 10:30 | 51.15736 | -0.17693 | 205 ft | 5 kts | 256° |
| 2026-05-04 10:31 | 51.15729 | -0.17747 | 205 ft | 5 kts | 258° |
| 2026-05-04 10:31 | 51.15723 | -0.17795 | 214 ft | 4 kts | 258° |
| 2026-05-04 10:32 | 51.15644 | -0.17855 | 205 ft | 0 kts | 168° |